Aviation Digital Data Service (ADDS)

Output produced by TAFs form (0800 UTC 11 December 2016)
found at http://aviationweather.gov/adds/tafs/
 
KVEL 110541Z 1106/1206 VRB03KT P6SM VCSH OVC060 
     TEMPO 1106/1110 6SM -RASN BR SCT030 OVC040 
     FM111000 31005KT P6SM BKN050 
     FM111400 28005KT P6SM SCT050 
     FM111700 22005KT P6SM SCT045